Terminal Aerodrome Forecast
Issued by NWS

Current Version | Previous Version | Text Only | Print | Product List | Glossary On
Versions: 1 2 3 4 5 6 7 8 9 10 11 12 13 14 15
291
FTUS44 KLIX 110531
TAFGPT
TAF
KGPT 110531Z 1106/1206 23008KT P6SM SKC
     FM111600 24012G18KT P6SM SKC
     FM120100 20005KT P6SM SKC=

USA.gov is the U.S. government's official web portal to all federal, state and local government web resources and services.